Time;durP1;ratioP1;P1;durP2;ratioP2;P2;SDS_P1;SDS_P2;PMS_P1;PMS_P2;Temp;Humidity;BMP_temperature;BMP_pressure;BME280_temperature;BME280_humidity;BME280_pressure;Samples;Min_cycle;Max_cycle;Signal;HPM_P1;HPM_P2
2022/05/06 00:01:41;;;;;;;13.18;7.85;;;15.20;99.90;;;;;;5096784;28;20441;-74
2022/05/06 00:04:09;;;;;;;11.80;8.38;;;15.30;99.90;;;;;;5055765;28;20103;-74
2022/05/06 00:06:37;;;;;;;11.43;7.35;;;15.20;99.90;;;;;;5098217;28;20036;-74
2022/05/06 00:09:05;;;;;;;11.32;8.10;;;15.20;99.90;;;;;;5086300;28;20070;-74
2022/05/06 00:11:33;;;;;;;15.23;9.15;;;15.10;99.90;;;;;;5062344;28;20397;-73
2022/05/06 00:14:01;;;;;;;12.77;9.15;;;15.10;99.90;;;;;;5094128;28;20044;-74
2022/05/06 00:16:29;;;;;;;10.38;7.18;;;15.00;99.90;;;;;;5062961;28;20482;-74
2022/05/06 00:18:56;;;;;;;12.80;8.35;;;15.10;99.90;;;;;;5060549;28;20051;-74
2022/05/06 00:21:24;;;;;;;11.32;8.23;;;15.00;99.90;;;;;;5088734;28;20051;-75
2022/05/06 00:23:52;;;;;;;13.25;8.15;;;15.20;99.90;;;;;;5083798;28;20044;-74
2022/05/06 00:26:20;;;;;;;12.38;8.18;;;15.20;99.90;;;;;;5082236;28;20854;-74
2022/05/06 00:28:47;;;;;;;11.75;8.40;;;15.10;99.90;;;;;;5045332;28;20450;-74
2022/05/06 00:31:15;;;;;;;11.10;7.20;;;15.00;99.90;;;;;;5068838;28;20069;-74
2022/05/06 00:33:43;;;;;;;10.10;8.68;;;15.00;99.90;;;;;;5070946;28;20043;-74
2022/05/06 00:36:10;;;;;;;9.95;7.72;;;15.00;99.90;;;;;;5085454;28;20395;-73
2022/05/06 00:38:38;;;;;;;10.90;7.85;;;15.00;99.90;;;;;;5098090;28;20122;-74
2022/05/06 00:41:09;;;;;;;14.07;8.13;;;15.00;99.90;;;;;;5061183;28;20040;-74
2022/05/06 00:43:40;;;;;;;11.50;7.28;;;15.00;99.90;;;;;;5057097;28;20069;-74
2022/05/06 00:46:12;;;;;;;16.70;9.32;;;14.90;99.90;;;;;;5070959;28;20097;-74
2022/05/06 00:48:43;;;;;;;11.80;8.02;;;14.90;99.90;;;;;;5063265;28;20517;-74
2022/05/06 00:51:12;;;;;;;13.38;8.48;;;14.90;99.90;;;;;;5068670;28;20042;-74
2022/05/06 00:53:43;;;;;;;10.80;8.57;;;15.00;99.90;;;;;;5045386;28;20405;-74
2022/05/06 00:56:12;;;;;;;13.27;8.45;;;14.90;99.90;;;;;;5087889;28;20098;-73
2022/05/06 00:58:39;;;;;;;12.02;8.45;;;14.90;99.90;;;;;;5051412;28;20440;-74
2022/05/06 01:01:07;;;;;;;12.57;8.23;;;14.90;99.90;;;;;;5089570;28;20058;-74
2022/05/06 01:03:35;;;;;;;14.00;9.02;;;14.90;99.90;;;;;;5064494;28;20082;-74
2022/05/06 01:06:07;;;;;;;13.75;8.48;;;14.90;99.90;;;;;;5053487;28;20055;-74
2022/05/06 01:08:35;;;;;;;12.55;8.07;;;15.00;99.90;;;;;;5087572;28;20039;-74
2022/05/06 01:11:03;;;;;;;10.77;8.05;;;15.10;99.90;;;;;;5057531;28;20719;-74
2022/05/06 01:13:31;;;;;;;10.10;7.53;;;15.20;99.90;;;;;;5069352;28;20051;-74
2022/05/06 01:15:58;;;;;;;12.68;8.75;;;15.30;99.90;;;;;;5064844;28;20498;-74
2022/05/06 01:18:30;;;;;;;9.05;7.45;;;15.40;99.90;;;;;;5069126;28;20063;-75
2022/05/06 01:21:00;;;;;;;10.55;8.45;;;15.40;99.90;;;;;;5059466;28;20040;-75
2022/05/06 01:23:28;;;;;;;9.95;6.55;;;15.40;99.90;;;;;;5066301;28;20040;-75
2022/05/06 01:25:56;;;;;;;9.93;6.78;;;15.40;99.90;;;;;;5017280;28;20540;-75
2022/05/06 01:28:26;;;;;;;12.02;7.45;;;15.40;99.90;;;;;;5033868;28;20040;-74
2022/05/06 01:31:00;;;;;;;9.43;6.68;;;15.30;99.90;;;;;;5033579;28;20094;-75
2022/05/06 01:33:30;;;;;;;9.32;6.90;;;15.40;99.90;;;;;;5068350;28;20044;-75
2022/05/06 01:36:06;;;;;;;11.13;6.97;;;15.40;99.90;;;;;;5034229;28;20167;-75
2022/05/06 01:38:40;;;;;;;11.13;7.73;;;15.50;99.90;;;;;;5035481;28;20048;-75
2022/05/06 01:41:21;;;;;;;11.75;7.20;;;15.50;99.90;;;;;;5035587;28;20049;-75
2022/05/06 01:44:20;;;;;;;9.98;6.35;;;15.60;99.90;;;;;;5060458;28;20426;-75
2022/05/06 01:46:51;;;;;;;10.20;7.43;;;15.60;99.90;;;;;;5054174;28;20526;-75
2022/05/06 01:49:25;;;;;;;13.68;7.32;;;15.60;99.90;;;;;;5054877;28;20437;-75
2022/05/06 01:51:54;;;;;;;9.73;7.13;;;15.50;99.90;;;;;;5055529;28;20051;-75
2022/05/06 01:54:26;;;;;;;12.25;6.95;;;15.40;99.90;;;;;;5039685;28;20131;-75
2022/05/06 01:56:55;;;;;;;10.80;7.18;;;15.50;99.90;;;;;;5055501;28;20048;-75
2022/05/06 01:59:24;;;;;;;9.23;7.00;;;15.60;99.90;;;;;;5055338;28;20491;-75
2022/05/06 02:01:59;;;;;;;9.82;6.82;;;15.50;99.90;;;;;;5038177;28;20060;-75
2022/05/06 02:07:17;;;;;;;12.63;7.43;;;15.60;99.90;;;;;;5038293;28;20414;-75
2022/05/06 02:09:45;;;;;;;14.27;7.13;;;15.70;99.90;;;;;;5069861;28;20127;-75
2022/05/06 02:12:16;;;;;;;10.00;7.50;;;15.70;99.90;;;;;;5058182;28;20142;-75
2022/05/06 02:14:58;;;;;;;13.25;7.15;;;15.60;99.90;;;;;;5075078;28;20393;-75
2022/05/06 02:17:45;;;;;;;10.07;6.93;;;15.60;99.90;;;;;;5054341;28;20048;-75
2022/05/06 02:20:33;;;;;;;11.77;7.13;;;15.60;99.90;;;;;;5074470;28;20056;-75
2022/05/06 02:23:12;;;;;;;11.75;7.30;;;15.60;99.90;;;;;;5074669;28;20117;-75
2022/05/06 02:25:59;;;;;;;10.50;7.28;;;15.60;99.90;;;;;;5078084;28;20070;-75
2022/05/06 02:28:34;;;;;;;14.32;6.93;;;15.50;99.90;;;;;;5058146;28;20480;-75
2022/05/06 02:33:53;;;;;;;14.73;8.02;;;15.60;99.90;;;;;;5058240;28;20052;-75
2022/05/06 02:36:28;;;;;;;11.55;8.13;;;15.70;99.90;;;;;;5043011;28;20563;-75
2022/05/06 02:38:56;;;;;;;9.77;6.85;;;15.60;99.90;;;;;;5054596;28;20110;-75
2022/05/06 02:41:23;;;;;;;12.80;8.40;;;15.70;99.90;;;;;;5074263;28;20563;-75
2022/05/06 02:43:54;;;;;;;11.82;8.15;;;15.70;99.90;;;;;;5057469;28;20044;-75
2022/05/06 02:46:24;;;;;;;11.00;8.20;;;15.70;99.90;;;;;;5074639;28;20052;-75
2022/05/06 02:48:54;;;;;;;14.07;7.68;;;15.70;99.90;;;;;;5058029;28;20091;-75
2022/05/06 02:51:21;;;;;;;13.10;7.78;;;15.70;99.90;;;;;;5040550;28;20040;-75
2022/05/06 02:53:49;;;;;;;11.43;6.95;;;15.70;99.90;;;;;;5074606;28;20055;-75
2022/05/06 02:56:22;;;;;;;13.88;7.60;;;15.80;99.90;;;;;;5074324;28;20135;-75
2022/05/06 02:58:54;;;;;;;13.15;7.13;;;15.80;99.90;;;;;;5073305;28;20043;-75
2022/05/06 03:01:25;;;;;;;10.02;7.03;;;15.80;99.90;;;;;;5050835;28;20066;-75
2022/05/06 03:03:55;;;;;;;13.95;7.50;;;15.80;99.90;;;;;;5026766;28;20045;-75
2022/05/06 03:06:24;;;;;;;11.52;7.28;;;15.80;99.90;;;;;;5050450;28;20518;-76
2022/05/06 03:08:53;;;;;;;11.77;7.88;;;15.80;99.90;;;;;;5073765;28;20119;-75
2022/05/06 03:11:25;;;;;;;11.48;7.95;;;15.80;99.90;;;;;;5057882;28;20449;-75
2022/05/06 03:14:02;;;;;;;13.77;9.30;;;15.80;99.90;;;;;;5071330;28;20145;-75
2022/05/06 03:16:37;;;;;;;10.80;7.45;;;15.70;99.90;;;;;;5057421;28;20113;-75
2022/05/06 03:19:04;;;;;;;13.23;8.70;;;15.60;99.90;;;;;;5071709;28;20055;-75
2022/05/06 03:21:32;;;;;;;11.35;7.93;;;15.60;99.90;;;;;;5073530;28;20109;-75
2022/05/06 03:24:00;;;;;;;12.93;8.60;;;15.60;99.90;;;;;;5073880;28;20048;-75
2022/05/06 03:26:28;;;;;;;11.82;7.85;;;15.60;99.90;;;;;;5072973;28;20067;-75
2022/05/06 03:28:57;;;;;;;10.18;7.35;;;15.60;99.90;;;;;;5073545;28;20127;-75
2022/05/06 03:31:26;;;;;;;12.38;7.35;;;15.70;99.90;;;;;;5072929;28;20069;-75
2022/05/06 03:34:05;;;;;;;11.48;6.38;;;15.70;99.90;;;;;;5073533;28;20044;-75
2022/05/06 03:36:40;;;;;;;17.17;8.27;;;15.80;99.90;;;;;;5041527;28;20620;-75
2022/05/06 03:39:11;;;;;;;9.98;7.53;;;15.80;99.90;;;;;;5073136;28;20586;-75
2022/05/06 03:41:45;;;;;;;11.95;7.25;;;15.70;99.90;;;;;;5057102;28;20048;-75
2022/05/06 03:44:13;;;;;;;9.18;6.22;;;15.70;99.90;;;;;;5056255;28;20048;-75
2022/05/06 03:46:45;;;;;;;9.77;7.30;;;15.70;99.90;;;;;;5090920;28;20097;-75
2022/05/06 03:49:16;;;;;;;10.10;6.68;;;15.70;99.90;;;;;;5073089;28;20036;-76
2022/05/06 03:51:46;;;;;;;9.70;6.60;;;15.70;99.90;;;;;;5056695;28;20410;-75
2022/05/06 03:54:18;;;;;;;11.20;7.15;;;15.80;99.90;;;;;;5056493;28;20051;-75
2022/05/06 03:56:46;;;;;;;13.18;7.80;;;15.90;99.90;;;;;;5056470;28;20042;-75
2022/05/06 03:59:16;;;;;;;12.65;7.60;;;15.90;99.90;;;;;;5073301;28;20056;-75
2022/05/06 04:01:49;;;;;;;10.52;6.18;;;15.90;99.90;;;;;;5055560;28;20052;-75
2022/05/06 04:04:35;;;;;;;9.52;6.88;;;15.90;99.90;;;;;;5058710;28;20154;-75
2022/05/06 04:07:07;;;;;;;11.25;8.65;;;15.80;99.90;;;;;;5073092;28;20043;-75
2022/05/06 04:09:42;;;;;;;12.07;9.00;;;15.80;99.90;;;;;;5071703;28;20038;-75
2022/05/06 04:12:11;;;;;;;10.55;6.70;;;15.80;99.90;;;;;;5072813;28;20043;-75
2022/05/06 04:14:45;;;;;;;8.70;6.60;;;15.80;99.90;;;;;;5073755;28;20098;-76
2022/05/06 04:17:13;;;;;;;14.43;6.82;;;15.80;99.90;;;;;;5072726;28;20524;-76
2022/05/06 04:25:25;;;;;;;17.15;7.78;;;15.80;99.90;;;;;;5055365;28;20108;-75
2022/05/06 04:27:54;;;;;;;11.27;7.32;;;15.90;99.90;;;;;;5056039;28;20052;-75
2022/05/06 04:30:23;;;;;;;11.43;6.57;;;16.00;99.90;;;;;;5055781;28;20048;-75
2022/05/06 04:33:03;;;;;;;14.73;7.63;;;16.10;99.90;;;;;;5056093;28;20055;-75
2022/05/06 04:35:31;;;;;;;11.18;6.35;;;16.10;99.90;;;;;;5055782;28;20044;-76
2022/05/06 04:38:00;;;;;;;10.02;7.45;;;16.10;99.90;;;;;;5055512;28;20135;-76
2022/05/06 04:40:33;;;;;;;10.27;6.97;;;16.10;99.90;;;;;;5056755;28;20091;-76
2022/05/06 04:43:03;;;;;;;10.48;6.63;;;16.10;99.90;;;;;;5072407;28;20039;-75
2022/05/06 04:45:40;;;;;;;9.90;6.82;;;16.10;99.90;;;;;;5072024;28;20051;-75
2022/05/06 04:48:11;;;;;;;11.75;6.93;;;16.20;99.90;;;;;;5053177;28;20470;-75
2022/05/06 04:50:44;;;;;;;9.50;6.60;;;16.20;99.90;;;;;;5071069;28;20063;-76
2022/05/06 04:53:14;;;;;;;9.98;6.53;;;16.20;99.90;;;;;;5055265;28;20044;-75
2022/05/06 04:55:44;;;;;;;11.40;7.30;;;16.20;99.90;;;;;;5072254;28;20494;-75
2022/05/06 04:58:12;;;;;;;9.98;6.50;;;16.20;99.90;;;;;;5072364;28;20044;-75
2022/05/06 05:00:40;;;;;;;10.98;6.95;;;16.20;99.90;;;;;;5065202;28;20135;-75
2022/05/06 05:03:09;;;;;;;10.45;6.68;;;16.20;99.90;;;;;;5050976;28;20521;-74
2022/05/06 05:05:37;;;;;;;9.80;6.65;;;16.10;99.90;;;;;;5052634;28;20106;-75
2022/05/06 05:08:08;;;;;;;11.52;6.97;;;16.10;99.90;;;;;;5058453;28;20051;-75
2022/05/06 05:10:42;;;;;;;11.77;8.55;;;16.00;99.90;;;;;;5053093;28;20045;-75
2022/05/06 05:13:11;;;;;;;11.93;6.78;;;16.00;99.90;;;;;;5062633;28;20083;-75
2022/05/06 05:15:38;;;;;;;15.52;8.23;;;16.00;99.90;;;;;;5039750;28;20093;-75
2022/05/06 05:18:09;;;;;;;11.73;7.07;;;16.00;99.90;;;;;;5051309;28;20075;-75
2022/05/06 05:20:38;;;;;;;13.82;8.77;;;16.00;99.90;;;;;;5051726;28;20758;-75
2022/05/06 05:23:06;;;;;;;11.23;7.13;;;16.00;99.90;;;;;;5038580;28;20047;-75
2022/05/06 05:25:37;;;;;;;10.68;8.35;;;15.90;99.90;;;;;;5038466;28;20058;-75
2022/05/06 05:28:05;;;;;;;12.68;8.93;;;15.80;99.90;;;;;;5039129;28;20110;-75
2022/05/06 05:30:38;;;;;;;12.45;8.50;;;15.80;99.90;;;;;;5054824;28;20048;-75
2022/05/06 05:33:09;;;;;;;15.73;8.50;;;15.80;99.90;;;;;;5040499;28;20055;-75
2022/05/06 05:35:43;;;;;;;13.05;8.45;;;15.90;99.90;;;;;;5043411;28;20134;-74
2022/05/06 05:38:11;;;;;;;13.98;9.05;;;15.90;99.90;;;;;;5058961;28;20050;-75
2022/05/06 05:40:39;;;;;;;10.25;7.43;;;15.90;99.90;;;;;;5075773;28;20048;-75
2022/05/06 05:48:19;;;;;;;11.88;8.32;;;16.00;99.90;;;;;;5042372;28;20044;-74
2022/05/06 05:48:51;;;;;;;13.10;8.40;;;16.10;99.90;;;;;;5058711;28;20048;-75
2022/05/06 05:51:19;;;;;;;11.80;8.55;;;16.10;99.90;;;;;;5031322;28;20052;-75
2022/05/06 05:53:52;;;;;;;16.83;9.23;;;16.20;99.90;;;;;;5074804;28;20052;-75
2022/05/06 05:56:22;;;;;;;13.30;9.27;;;16.20;99.90;;;;;;5058474;28;20048;-74
2022/05/06 05:58:51;;;;;;;17.70;10.02;;;16.30;99.90;;;;;;5074757;28;20040;-74
2022/05/06 06:01:22;;;;;;;13.15;8.05;;;16.30;99.90;;;;;;5058936;28;20146;-74
2022/05/06 06:03:51;;;;;;;11.88;8.38;;;16.30;99.90;;;;;;5075205;28;20048;-75
2022/05/06 06:06:19;;;;;;;12.88;7.55;;;16.30;99.90;;;;;;5058533;28;20044;-74
2022/05/06 06:08:50;;;;;;;11.23;7.47;;;16.30;99.90;;;;;;5075328;28;20173;-75
2022/05/06 06:11:18;;;;;;;13.65;7.40;;;16.40;99.90;;;;;;5057666;28;20055;-74
2022/05/06 06:13:49;;;;;;;12.93;7.38;;;16.40;99.90;;;;;;5075134;28;20044;-74
2022/05/06 06:16:20;;;;;;;15.65;8.65;;;16.40;99.90;;;;;;5058654;28;20398;-74
2022/05/06 06:18:49;;;;;;;14.65;8.13;;;16.50;99.90;;;;;;5074803;28;20479;-75
2022/05/06 06:21:20;;;;;;;14.88;9.52;;;16.50;99.90;;;;;;5058122;28;20098;-74
2022/05/06 06:23:48;;;;;;;11.43;7.97;;;16.50;99.90;;;;;;5055040;28;20433;-74
2022/05/06 06:26:15;;;;;;;10.80;8.65;;;16.50;99.90;;;;;;5053739;28;20135;-75
2022/05/06 06:28:44;;;;;;;12.95;9.18;;;16.50;99.90;;;;;;5075136;28;20052;-74
2022/05/06 06:31:13;;;;;;;11.70;8.15;;;16.50;99.90;;;;;;5074221;28;20051;-74
2022/05/06 06:33:43;;;;;;;12.23;8.23;;;16.50;99.90;;;;;;5057257;28;20172;-74
2022/05/06 06:36:17;;;;;;;13.55;8.30;;;16.50;99.90;;;;;;5042050;28;20129;-74
2022/05/06 06:38:46;;;;;;;12.25;7.25;;;16.60;99.90;;;;;;5074933;28;20213;-74
2022/05/06 06:41:15;;;;;;;12.95;8.20;;;16.60;99.90;;;;;;5072410;28;20051;-74
2022/05/06 06:43:42;;;;;;;12.40;7.72;;;16.60;99.90;;;;;;5074154;28;20040;-74
2022/05/06 06:46:36;;;;;;;13.27;7.60;;;16.60;99.90;;;;;;5074781;28;20042;-74
2022/05/06 06:49:24;;;;;;;10.85;7.32;;;16.60;99.90;;;;;;5043363;28;20051;-74
2022/05/06 06:52:24;;;;;;;9.30;7.43;;;16.60;99.90;;;;;;5075456;28;20047;-74
2022/05/06 06:54:52;;;;;;;16.33;8.65;;;16.60;99.90;;;;;;5074395;28;20067;-75
2022/05/06 06:57:19;;;;;;;10.43;7.15;;;16.60;99.90;;;;;;5041213;28;20082;-74
2022/05/06 06:59:47;;;;;;;12.23;7.03;;;16.60;99.90;;;;;;5074376;28;20040;-74
2022/05/06 07:02:16;;;;;;;11.35;7.82;;;16.60;99.90;;;;;;5073762;28;20048;-75
2022/05/06 07:04:43;;;;;;;15.57;7.22;;;16.60;99.90;;;;;;5056930;28;20050;-75
2022/05/06 07:12:43;;;;;;;13.02;6.90;;;16.70;99.90;;;;;;5074145;28;20044;-74
2022/05/06 07:15:10;;;;;;;8.35;5.85;;;16.70;99.90;;;;;;5073461;28;20036;-74
2022/05/06 07:17:38;;;;;;;12.35;6.68;;;16.70;99.90;;;;;;5073930;28;20054;-74
2022/05/06 07:20:06;;;;;;;8.18;6.32;;;16.80;99.90;;;;;;5057060;28;20056;-74
2022/05/06 07:22:33;;;;;;;15.10;7.95;;;16.70;99.90;;;;;;5056835;28;20056;-74
2022/05/06 07:25:01;;;;;;;10.13;6.97;;;16.70;99.90;;;;;;5040376;28;20048;-74
2022/05/06 07:27:29;;;;;;;11.07;6.63;;;16.60;99.90;;;;;;5073587;28;20063;-74
2022/05/06 07:29:57;;;;;;;9.48;6.65;;;16.70;99.90;;;;;;5073430;28;20047;-74
2022/05/06 07:32:25;;;;;;;9.57;5.90;;;16.60;99.90;;;;;;5073606;28;20090;-74
2022/05/06 07:34:52;;;;;;;10.50;6.45;;;16.60;99.90;;;;;;5056663;28;20052;-73
2022/05/06 07:37:20;;;;;;;11.88;7.43;;;16.60;99.90;;;;;;5037860;28;20044;-74
2022/05/06 07:39:48;;;;;;;9.70;7.18;;;16.60;99.90;;;;;;5073305;28;20530;-74
2022/05/06 07:42:16;;;;;;;8.45;5.65;;;16.60;99.90;;;;;;5057065;28;20055;-74
2022/05/06 07:44:43;;;;;;;11.10;6.05;;;16.60;99.90;;;;;;5072894;28;20056;-74
2022/05/06 07:47:11;;;;;;;11.55;7.22;;;16.70;99.90;;;;;;5056594;28;20120;-74
2022/05/06 07:49:38;;;;;;;10.75;8.77;;;16.70;99.90;;;;;;5040022;28;20047;-73
2022/05/06 07:52:06;;;;;;;10.50;6.97;;;16.70;99.90;;;;;;5090810;28;20117;-73
2022/05/06 07:54:34;;;;;;;12.77;7.20;;;16.70;99.90;;;;;;5056255;28;20044;-73
2022/05/06 07:57:04;;;;;;;11.80;7.32;;;16.60;99.90;;;;;;5055817;28;20047;-75
2022/05/06 07:59:31;;;;;;;9.23;6.55;;;16.60;99.90;;;;;;5072564;28;20140;-74
2022/05/06 08:04:48;;;;;;;10.45;6.00;;;16.60;99.90;;;;;;5090942;28;20113;-73
2022/05/06 08:07:16;;;;;;;11.93;6.47;;;16.60;99.90;;;;;;5055612;28;20075;-73
2022/05/06 08:09:46;;;;;;;12.27;6.63;;;16.50;99.90;;;;;;5056416;28;20055;-73
2022/05/06 08:12:14;;;;;;;8.32;5.65;;;16.60;99.90;;;;;;5090717;28;20561;-73
2022/05/06 08:14:42;;;;;;;10.57;5.95;;;16.60;99.90;;;;;;5073202;28;20083;-73
2022/05/06 08:17:11;;;;;;;9.38;5.57;;;16.60;99.90;;;;;;5072054;28;20052;-73
2022/05/06 08:19:39;;;;;;;7.80;5.55;;;16.60;99.90;;;;;;5072214;28;20047;-73
2022/05/06 08:22:06;;;;;;;12.65;7.22;;;16.60;99.90;;;;;;5056014;28;20079;-73
2022/05/06 08:24:34;;;;;;;11.40;6.18;;;16.60;99.90;;;;;;5072630;28;20040;-73
2022/05/06 08:27:01;;;;;;;10.20;7.07;;;16.70;99.90;;;;;;5072894;28;20059;-73
2022/05/06 08:29:29;;;;;;;8.10;5.72;;;16.70;99.90;;;;;;5055561;28;20146;-73
2022/05/06 08:31:56;;;;;;;11.18;6.53;;;16.70;99.90;;;;;;5072546;28;20105;-73
2022/05/06 08:34:24;;;;;;;10.85;5.80;;;16.70;99.90;;;;;;5072488;28;20056;-73
2022/05/06 08:36:52;;;;;;;10.55;6.85;;;16.80;99.90;;;;;;5056894;28;20100;-73
2022/05/06 08:39:19;;;;;;;9.13;6.25;;;16.80;99.90;;;;;;5038782;28;20079;-73
2022/05/06 08:41:48;;;;;;;9.07;5.55;;;16.90;99.90;;;;;;5072493;28;20131;-73
2022/05/06 08:52:36;;;;;;;8.43;6.43;;;17.10;99.90;;;;;;5072753;28;20075;-73
2022/05/06 08:55:05;;;;;;;10.60;5.68;;;17.10;99.90;;;;;;5090186;28;20067;-74
2022/05/06 08:57:35;;;;;;;7.40;5.38;;;17.20;99.90;;;;;;5059080;28;20138;-73
2022/05/06 09:00:04;;;;;;;6.85;5.07;;;17.20;99.90;;;;;;5076582;28;20088;-73
2022/05/06 09:02:32;;;;;;;6.47;4.47;;;17.30;99.90;;;;;;5076270;28;20060;-74
2022/05/06 09:04:59;;;;;;;9.80;4.60;;;17.40;99.90;;;;;;5059279;28;20074;-75
2022/05/06 09:07:29;;;;;;;8.13;4.95;;;17.40;99.90;;;;;;5076415;28;20043;-74
2022/05/06 09:10:15;;;;;;;9.68;5.45;;;17.50;99.90;;;;;;5059536;28;20510;-75
2022/05/06 09:12:46;;;;;;;6.43;4.68;;;17.50;99.90;;;;;;5042728;28;20048;-74
2022/05/06 09:18:03;;;;;;;6.65;5.45;;;17.60;99.90;;;;;;5093596;28;20070;-75
2022/05/06 09:20:32;;;;;;;7.15;5.38;;;17.60;99.90;;;;;;5059659;28;20052;-74
2022/05/06 09:23:17;;;;;;;7.00;4.25;;;17.60;99.90;;;;;;5058704;28;20052;-74
2022/05/06 09:25:46;;;;;;;9.48;5.25;;;17.70;99.90;;;;;;5075147;28;20059;-75
2022/05/06 09:28:32;;;;;;;8.77;5.35;;;17.70;99.90;;;;;;5074762;28;20062;-72
2022/05/06 09:31:07;;;;;;;9.00;5.22;;;17.80;99.90;;;;;;5075085;28;20048;-72
2022/05/06 09:33:46;;;;;;;6.72;4.28;;;17.80;99.90;;;;;;5073155;28;20174;-72
2022/05/06 09:36:40;;;;;;;6.38;4.97;;;17.80;99.90;;;;;;5075285;28;20055;-71
2022/05/06 09:39:13;;;;;;;7.82;4.78;;;17.90;99.90;;;;;;5057561;28;20048;-72
2022/05/06 09:41:41;;;;;;;7.95;3.97;;;17.90;99.90;;;;;;5075911;28;20065;-71
2022/05/06 09:44:10;;;;;;;8.00;4.57;;;17.90;99.90;;;;;;5059154;28;20052;-73
2022/05/06 09:46:38;;;;;;;10.05;3.92;;;17.80;99.90;;;;;;5059369;28;20058;-71
2022/05/06 09:49:06;;;;;;;8.13;4.32;;;17.90;99.90;;;;;;5058752;28;20083;-70
2022/05/06 09:51:45;;;;;;;6.90;4.05;;;17.90;99.90;;;;;;5059479;28;20048;-72
2022/05/06 09:54:30;;;;;;;6.72;4.55;;;17.90;99.90;;;;;;5058932;28;20067;-71
2022/05/06 09:56:57;;;;;;;7.13;4.93;;;18.00;99.90;;;;;;5058896;28;20047;-72
2022/05/06 09:59:27;;;;;;;6.35;4.50;;;18.10;99.90;;;;;;5074958;28;20036;-72
2022/05/06 10:01:54;;;;;;;8.02;4.43;;;18.10;99.90;;;;;;5074857;28;20063;-72
2022/05/06 10:04:22;;;;;;;6.20;3.55;;;18.20;99.90;;;;;;5058526;28;20086;-72
2022/05/06 10:06:50;;;;;;;7.20;3.97;;;18.30;99.90;;;;;;5041630;28;20531;-72
2022/05/06 10:09:21;;;;;;;8.13;3.70;;;18.40;99.90;;;;;;5075005;28;20048;-72
2022/05/06 10:11:51;;;;;;;5.95;4.10;;;18.40;99.90;;;;;;5058805;28;20688;-72
2022/05/06 10:14:20;;;;;;;5.40;3.90;;;18.50;99.90;;;;;;5057880;28;20494;-72
2022/05/06 10:16:49;;;;;;;7.10;3.47;;;18.50;99.90;;;;;;5073718;28;20465;-72
2022/05/06 10:19:44;;;;;;;10.30;3.38;;;18.50;99.90;;;;;;5057289;28;20055;-72
2022/05/06 10:22:12;;;;;;;5.70;3.33;;;18.60;99.90;;;;;;5040667;28;20052;-73
2022/05/06 10:24:53;;;;;;;7.60;3.28;;;18.80;99.90;;;;;;5073935;28;20569;-72
2022/05/06 10:27:23;;;;;;;7.65;4.28;;;18.80;99.90;;;;;;5057458;28;20436;-73
2022/05/06 10:32:54;;;;;;;5.60;3.80;;;18.90;99.90;;;;;;5073822;28;20044;-71
2022/05/06 10:35:40;;;;;;;6.70;4.35;;;19.20;99.90;;;;;;5057616;28;20151;-72
2022/05/06 10:38:22;;;;;;;5.82;3.30;;;19.30;99.90;;;;;;5040925;28;20172;-72
2022/05/06 10:41:02;;;;;;;6.13;3.03;;;19.60;99.90;;;;;;5058092;28;20182;-72
2022/05/06 10:43:43;;;;;;;5.82;3.03;;;19.70;99.90;;;;;;5040509;28;20112;-71
2022/05/06 10:46:29;;;;;;;4.70;2.80;;;20.00;99.90;;;;;;5041196;28;20051;-73
2022/05/06 10:49:35;;;;;;;5.30;2.78;;;19.90;99.00;;;;;;5073616;28;20497;-71
2022/05/06 10:52:28;;;;;;;4.90;2.72;;;19.80;99.50;;;;;;5056981;28;20052;-70
2022/05/06 10:55:00;;;;;;;3.78;2.60;;;19.80;99.70;;;;;;5041073;28;20474;-70
2022/05/06 10:57:30;;;;;;;7.47;2.42;;;19.80;98.40;;;;;;5073325;28;20048;-71
2022/05/06 11:00:02;;;;;;;3.53;2.47;;;19.70;98.50;;;;;;5056730;28;20048;-71
2022/05/06 11:02:32;;;;;;;5.50;2.55;;;19.70;99.00;;;;;;5056317;28;20085;-71
2022/05/06 11:05:02;;;;;;;3.92;2.53;;;19.70;98.90;;;;;;5073550;28;20143;-72
2022/05/06 11:07:32;;;;;;;4.43;3.03;;;19.70;98.90;;;;;;5073409;28;20105;-73
2022/05/06 11:10:09;;;;;;;3.38;2.60;;;19.70;98.70;;;;;;5091839;28;20040;-72
2022/05/06 11:12:47;;;;;;;3.28;2.10;;;19.70;98.10;;;;;;5070559;28;20047;-72
2022/05/06 11:15:29;;;;;;;4.97;2.20;;;19.70;98.00;;;;;;5073097;28;20043;-71
2022/05/06 11:18:04;;;;;;;5.53;2.97;;;19.70;97.90;;;;;;5056567;28;20048;-72
2022/05/06 11:20:37;;;;;;;5.03;2.72;;;19.70;98.10;;;;;;5072919;28;20075;-72
2022/05/06 11:23:15;;;;;;;3.63;2.40;;;19.70;97.70;;;;;;5056278;28;20067;-71
2022/05/06 11:25:46;;;;;;;4.30;2.10;;;19.60;97.00;;;;;;5073904;28;20048;-71
2022/05/06 11:28:14;;;;;;;4.80;1.98;;;19.60;96.30;;;;;;5057568;28;20071;-72
2022/05/06 11:30:45;;;;;;;4.30;2.33;;;19.50;96.00;;;;;;5091893;28;20134;-71
2022/05/06 11:33:26;;;;;;;14.82;3.40;;;19.40;96.30;;;;;;5091758;28;20048;-72
2022/05/06 11:36:06;;;;;;;3.53;2.72;;;19.40;97.00;;;;;;5056959;28;20093;-72
2022/05/06 11:38:38;;;;;;;4.18;2.60;;;19.40;97.40;;;;;;5057090;28;20048;-72
2022/05/06 11:41:14;;;;;;;4.05;2.53;;;19.40;97.00;;;;;;5057167;28;20056;-71
2022/05/06 11:43:43;;;;;;;2.90;1.98;;;19.40;96.80;;;;;;5091339;28;20043;-73
2022/05/06 11:49:01;;;;;;;3.97;2.20;;;19.30;96.60;;;;;;5073322;28;20040;-72
2022/05/06 11:51:45;;;;;;;3.10;2.28;;;19.30;96.20;;;;;;5072209;28;20047;-72
2022/05/06 11:54:15;;;;;;;3.38;2.20;;;19.30;96.60;;;;;;5056264;28;20079;-72
2022/05/06 11:56:44;;;;;;;3.25;1.92;;;19.30;96.60;;;;;;5073520;28;20052;-71
2022/05/06 11:59:12;;;;;;;4.15;2.13;;;19.30;96.70;;;;;;5072575;28;20394;-73
2022/05/06 12:01:41;;;;;;;4.18;2.50;;;19.30;96.50;;;;;;5056796;28;20052;-69
2022/05/06 12:04:10;;;;;;;5.25;2.40;;;19.40;96.90;;;;;;5056144;28;20044;-73
2022/05/06 12:06:41;;;;;;;3.80;2.25;;;19.30;96.90;;;;;;5055339;28;20074;-71
2022/05/06 12:09:11;;;;;;;5.10;3.25;;;19.40;96.90;;;;;;5052238;28;20049;-71
2022/05/06 12:11:41;;;;;;;4.70;2.67;;;19.40;97.00;;;;;;5052525;28;20051;-72
2022/05/06 12:14:17;;;;;;;4.80;2.60;;;19.30;97.00;;;;;;5036006;28;20426;-72
2022/05/06 12:16:58;;;;;;;3.53;2.42;;;19.40;96.70;;;;;;5036166;28;20052;-71
2022/05/06 12:19:37;;;;;;;4.95;2.90;;;19.40;96.40;;;;;;5056109;28;20040;-72
2022/05/06 12:22:13;;;;;;;6.28;2.47;;;19.40;96.30;;;;;;5055928;28;20063;-72
2022/05/06 12:24:46;;;;;;;4.65;2.72;;;19.50;95.50;;;;;;5070758;28;20855;-72
2022/05/06 12:27:37;;;;;;;3.35;2.45;;;19.50;95.50;;;;;;5058625;28;20560;-72
2022/05/06 12:30:16;;;;;;;7.50;2.35;;;19.50;95.10;;;;;;5039235;28;20134;-72
2022/05/06 12:33:03;;;;;;;3.20;2.28;;;19.50;94.60;;;;;;5050151;28;20578;-72
2022/05/06 12:35:31;;;;;;;9.18;3.03;;;19.50;95.30;;;;;;5057153;28;20053;-73
2022/05/06 12:38:01;;;;;;;5.00;2.75;;;19.50;95.50;;;;;;5043413;28;20044;-72
2022/05/06 12:40:30;;;;;;;3.08;2.42;;;19.40;95.80;;;;;;5054483;28;20052;-73
2022/05/06 12:43:09;;;;;;;3.55;1.90;;;19.30;95.70;;;;;;5043764;28;20544;-72
2022/05/06 12:45:49;;;;;;;5.22;2.80;;;19.30;96.30;;;;;;5052638;28;20041;-72
2022/05/06 12:51:04;;;;;;;3.92;2.50;;;19.20;97.20;;;;;;5075219;28;20044;-72
2022/05/06 12:53:35;;;;;;;3.22;1.92;;;19.10;97.30;;;;;;5051593;28;20735;-72
2022/05/06 12:56:04;;;;;;;3.63;2.45;;;19.00;96.60;;;;;;5055311;28;20052;-72
2022/05/06 12:58:32;;;;;;;4.57;2.58;;;19.00;96.50;;;;;;5056219;28;20047;-72
2022/05/06 13:01:00;;;;;;;5.25;2.60;;;19.00;97.00;;;;;;5058619;28;20056;-72
2022/05/06 13:03:29;;;;;;;6.03;2.47;;;19.00;97.30;;;;;;5056462;28;20162;-73
2022/05/06 13:05:57;;;;;;;5.70;2.70;;;19.00;97.60;;;;;;5057490;28;20115;-73
2022/05/06 13:08:26;;;;;;;5.85;3.25;;;19.00;97.90;;;;;;5052239;28;20060;-73
2022/05/06 13:10:55;;;;;;;4.32;2.60;;;19.00;98.50;;;;;;5043939;28;20076;-72
2022/05/06 13:13:23;;;;;;;5.60;2.95;;;18.90;98.10;;;;;;5050033;28;20044;-72
2022/05/06 13:15:50;;;;;;;5.88;3.00;;;19.10;98.00;;;;;;5067292;28;20046;-72
2022/05/06 13:18:18;;;;;;;5.78;2.65;;;19.10;98.20;;;;;;5049274;28;20413;-71
2022/05/06 13:20:46;;;;;;;6.88;2.38;;;19.10;98.10;;;;;;5064883;28;20149;-72
2022/05/06 13:23:14;;;;;;;4.47;3.10;;;19.00;98.40;;;;;;5051146;28;20425;-72
2022/05/06 13:25:41;;;;;;;6.15;3.17;;;19.00;98.60;;;;;;5060411;28;20040;-73
2022/05/06 13:28:09;;;;;;;6.40;2.92;;;19.00;98.80;;;;;;5045140;28;20041;-71
2022/05/06 13:30:37;;;;;;;4.30;2.72;;;19.10;98.80;;;;;;5051778;28;20058;-71
2022/05/06 13:33:04;;;;;;;3.90;2.45;;;19.00;98.80;;;;;;5047179;28;20462;-72
2022/05/06 13:35:32;;;;;;;5.78;3.15;;;19.00;99.60;;;;;;5065584;28;20043;-72
2022/05/06 13:38:01;;;;;;;5.88;3.13;;;18.90;99.90;;;;;;5059989;28;20040;-71
2022/05/06 13:40:28;;;;;;;5.72;2.95;;;18.90;99.90;;;;;;5039925;28;20514;-71
2022/05/06 13:42:56;;;;;;;7.00;3.60;;;18.90;99.90;;;;;;5065484;28;20070;-72
2022/05/06 13:45:24;;;;;;;7.03;3.63;;;18.80;99.90;;;;;;5070135;28;20087;-74